sensor_id;sensor_type;location;lat;lon;timestamp;pressure;altitude;pressure_sealevel;temperature;humidity
4449;BME280;2237;51.870;6.160;2022-08-14T00:01:00;101101.59;;;25.78;39.54
4449;BME280;2237;51.870;6.160;2022-08-14T00:03:35;101106.56;;;25.72;39.72
4449;BME280;2237;51.870;6.160;2022-08-14T00:06:03;101108.53;;;25.70;39.83
4449;BME280;2237;51.870;6.160;2022-08-14T00:08:49;101107.31;;;25.63;40.43
4449;BME280;2237;51.870;6.160;2022-08-14T00:11:16;101094.97;;;25.62;40.49
4449;BME280;2237;51.870;6.160;2022-08-14T00:13:43;101094.22;;;25.60;40.86
4449;BME280;2237;51.870;6.160;2022-08-14T00:16:18;101092.09;;;25.54;40.91
4449;BME280;2237;51.870;6.160;2022-08-14T00:19:05;101088.91;;;25.49;41.31
4449;BME280;2237;51.870;6.160;2022-08-14T00:21:46;101093.63;;;25.45;41.29
4449;BME280;2237;51.870;6.160;2022-08-14T00:24:16;101081.03;;;25.36;41.99
4449;BME280;2237;51.870;6.160;2022-08-14T00:26:55;101082.13;;;25.34;41.96
4449;BME280;2237;51.870;6.160;2022-08-14T00:29:22;101090.38;;;25.31;42.11
4449;BME280;2237;51.870;6.160;2022-08-14T00:31:52;101079.09;;;25.27;42.35
4449;BME280;2237;51.870;6.160;2022-08-14T00:34:22;101075.81;;;25.23;42.62
4449;BME280;2237;51.870;6.160;2022-08-14T00:37:02;101077.63;;;25.23;42.81
4449;BME280;2237;51.870;6.160;2022-08-14T00:39:31;101076.78;;;25.22;42.62
4449;BME280;2237;51.870;6.160;2022-08-14T00:41:58;101078.00;;;25.18;43.03
4449;BME280;2237;51.870;6.160;2022-08-14T00:44:26;101080.06;;;25.15;43.29
4449;BME280;2237;51.870;6.160;2022-08-14T00:47:00;101067.94;;;25.11;42.84
4449;BME280;2237;51.870;6.160;2022-08-14T00:49:28;101074.84;;;25.13;42.78
4449;BME280;2237;51.870;6.160;2022-08-14T00:52:03;101073.75;;;25.05;43.25
4449;BME280;2237;51.870;6.160;2022-08-14T00:54:32;101067.84;;;25.01;43.42
4449;BME280;2237;51.870;6.160;2022-08-14T00:57:00;101064.31;;;25.01;43.44
4449;BME280;2237;51.870;6.160;2022-08-14T00:59:27;101063.22;;;25.03;43.60
4449;BME280;2237;51.870;6.160;2022-08-14T01:01:56;101060.78;;;25.00;43.62
4449;BME280;2237;51.870;6.160;2022-08-14T01:04:25;101054.22;;;24.93;43.75
4449;BME280;2237;51.870;6.160;2022-08-14T01:07:12;101048.44;;;24.99;43.55
4449;BME280;2237;51.870;6.160;2022-08-14T01:09:48;101055.47;;;25.00;43.73
4449;BME280;2237;51.870;6.160;2022-08-14T01:12:16;101047.94;;;24.94;43.60
4449;BME280;2237;51.870;6.160;2022-08-14T01:14:57;101042.00;;;24.91;43.83
4449;BME280;2237;51.870;6.160;2022-08-14T01:17:25;101036.56;;;24.81;44.19
4449;BME280;2237;51.870;6.160;2022-08-14T01:20:18;101016.03;;;24.70;44.80
4449;BME280;2237;51.870;6.160;2022-08-14T01:23:08;101031.91;;;24.72;44.59
4449;BME280;2237;51.870;6.160;2022-08-14T01:25:42;101030.47;;;24.68;44.97
4449;BME280;2237;51.870;6.160;2022-08-14T01:28:11;101031.16;;;24.59;45.07
4449;BME280;2237;51.870;6.160;2022-08-14T01:30:58;101025.72;;;24.60;44.94
4449;BME280;2237;51.870;6.160;2022-08-14T01:33:26;101027.53;;;24.49;45.40
4449;BME280;2237;51.870;6.160;2022-08-14T01:35:58;101023.88;;;24.50;45.43
4449;BME280;2237;51.870;6.160;2022-08-14T01:38:33;101017.59;;;24.40;45.86
4449;BME280;2237;51.870;6.160;2022-08-14T01:41:14;101011.16;;;24.31;46.27
4449;BME280;2237;51.870;6.160;2022-08-14T01:43:49;101016.34;;;24.33;46.01
4449;BME280;2237;51.870;6.160;2022-08-14T01:46:24;101007.63;;;24.31;46.49
4449;BME280;2237;51.870;6.160;2022-08-14T01:48:59;101009.56;;;24.29;46.21
4449;BME280;2237;51.870;6.160;2022-08-14T01:51:27;101003.25;;;24.30;46.22
4449;BME280;2237;51.870;6.160;2022-08-14T01:54:00;101000.00;;;24.26;46.29
4449;BME280;2237;51.870;6.160;2022-08-14T01:56:33;101000.47;;;24.20;46.65
4449;BME280;2237;51.870;6.160;2022-08-14T02:01:45;100995.84;;;24.11;47.04
4449;BME280;2237;51.870;6.160;2022-08-14T02:04:27;100985.22;;;24.11;46.70
4449;BME280;2237;51.870;6.160;2022-08-14T02:07:15;100984.34;;;24.10;47.27
4449;BME280;2237;51.870;6.160;2022-08-14T02:10:00;100984.69;;;24.06;47.33
4449;BME280;2237;51.870;6.160;2022-08-14T02:12:26;100982.03;;;24.06;47.44
4449;BME280;2237;51.870;6.160;2022-08-14T02:14:56;100972.44;;;24.03;47.11
4449;BME280;2237;51.870;6.160;2022-08-14T02:17:27;100962.63;;;23.93;47.67
4449;BME280;2237;51.870;6.160;2022-08-14T02:19:56;100966.59;;;23.87;47.89
4449;BME280;2237;51.870;6.160;2022-08-14T02:22:23;100964.88;;;23.86;48.09
4449;BME280;2237;51.870;6.160;2022-08-14T02:24:59;100969.34;;;23.86;48.16
4449;BME280;2237;51.870;6.160;2022-08-14T02:27:26;100969.22;;;23.76;48.50
4449;BME280;2237;51.870;6.160;2022-08-14T02:30:14;100958.66;;;23.75;48.37
4449;BME280;2237;51.870;6.160;2022-08-14T02:32:41;100955.91;;;23.76;48.41
4449;BME280;2237;51.870;6.160;2022-08-14T02:35:10;100966.66;;;23.75;49.03
4449;BME280;2237;51.870;6.160;2022-08-14T02:37:45;100964.13;;;23.73;48.80
4449;BME280;2237;51.870;6.160;2022-08-14T02:40:16;100964.13;;;23.73;48.60
4449;BME280;2237;51.870;6.160;2022-08-14T02:42:44;100962.13;;;23.64;49.29
4449;BME280;2237;51.870;6.160;2022-08-14T02:45:26;100964.56;;;23.67;48.71
4449;BME280;2237;51.870;6.160;2022-08-14T02:48:09;100959.09;;;23.57;49.64
4449;BME280;2237;51.870;6.160;2022-08-14T02:50:57;100955.69;;;23.55;49.33
4449;BME280;2237;51.870;6.160;2022-08-14T02:53:27;100955.91;;;23.52;49.39
4449;BME280;2237;51.870;6.160;2022-08-14T02:55:55;100962.09;;;23.53;49.41
4449;BME280;2237;51.870;6.160;2022-08-14T02:58:29;100963.28;;;23.49;49.62
4449;BME280;2237;51.870;6.160;2022-08-14T03:00:57;100967.13;;;23.45;50.05
4449;BME280;2237;51.870;6.160;2022-08-14T03:03:24;100964.94;;;23.39;50.18
4449;BME280;2237;51.870;6.160;2022-08-14T03:05:51;100963.00;;;23.41;50.03
4449;BME280;2237;51.870;6.160;2022-08-14T03:08:20;100962.75;;;23.44;49.89
4449;BME280;2237;51.870;6.160;2022-08-14T03:10:47;100957.88;;;23.38;50.22
4449;BME280;2237;51.870;6.160;2022-08-14T03:13:17;100959.66;;;23.37;50.28
4449;BME280;2237;51.870;6.160;2022-08-14T03:15:48;100960.88;;;23.33;50.56
4449;BME280;2237;51.870;6.160;2022-08-14T03:18:25;100960.25;;;23.30;50.58
4449;BME280;2237;51.870;6.160;2022-08-14T03:21:03;100958.66;;;23.27;50.80
4449;BME280;2237;51.870;6.160;2022-08-14T03:23:30;100963.56;;;23.21;50.96
4449;BME280;2237;51.870;6.160;2022-08-14T03:26:04;100962.72;;;23.20;51.01
4449;BME280;2237;51.870;6.160;2022-08-14T03:28:33;100961.34;;;23.15;51.43
4449;BME280;2237;51.870;6.160;2022-08-14T03:31:05;100949.38;;;23.09;51.68
4449;BME280;2237;51.870;6.160;2022-08-14T03:33:38;100956.69;;;23.05;51.78
4449;BME280;2237;51.870;6.160;2022-08-14T03:36:08;100950.97;;;22.99;52.02
4449;BME280;2237;51.870;6.160;2022-08-14T03:38:57;100941.41;;;22.96;51.99
4449;BME280;2237;51.870;6.160;2022-08-14T03:41:45;100952.03;;;22.96;52.14
4449;BME280;2237;51.870;6.160;2022-08-14T03:44:11;100954.69;;;22.96;52.17
4449;BME280;2237;51.870;6.160;2022-08-14T03:46:58;100955.91;;;22.92;52.40
4449;BME280;2237;51.870;6.160;2022-08-14T03:49:28;100951.63;;;22.90;52.58
4449;BME280;2237;51.870;6.160;2022-08-14T03:51:56;100959.84;;;22.87;52.40
4449;BME280;2237;51.870;6.160;2022-08-14T03:54:26;100943.34;;;22.82;52.55
4449;BME280;2237;51.870;6.160;2022-08-14T03:56:53;100952.69;;;22.87;52.60
4449;BME280;2237;51.870;6.160;2022-08-14T03:59:20;100944.84;;;22.86;52.59
4449;BME280;2237;51.870;6.160;2022-08-14T04:01:46;100946.34;;;22.77;52.94
4449;BME280;2237;51.870;6.160;2022-08-14T04:04:31;100935.22;;;22.72;53.19
4449;BME280;2237;51.870;6.160;2022-08-14T04:06:59;100938.59;;;22.74;53.09
4449;BME280;2237;51.870;6.160;2022-08-14T04:09:27;100939.97;;;22.67;53.75
4449;BME280;2237;51.870;6.160;2022-08-14T04:11:54;100936.16;;;22.71;53.13
4449;BME280;2237;51.870;6.160;2022-08-14T04:14:21;100943.63;;;22.66;53.86
4449;BME280;2237;51.870;6.160;2022-08-14T04:16:49;100934.66;;;22.67;53.51
4449;BME280;2237;51.870;6.160;2022-08-14T04:19:16;100940.28;;;22.63;53.95
4449;BME280;2237;51.870;6.160;2022-08-14T04:21:46;100939.22;;;22.52;54.06
4449;BME280;2237;51.870;6.160;2022-08-14T04:24:32;100934.97;;;22.50;54.22
4449;BME280;2237;51.870;6.160;2022-08-14T04:27:08;100937.63;;;22.50;54.24
4449;BME280;2237;51.870;6.160;2022-08-14T04:29:36;100939.34;;;22.51;54.51
4449;BME280;2237;51.870;6.160;2022-08-14T04:32:05;100930.88;;;22.46;54.17
4449;BME280;2237;51.870;6.160;2022-08-14T04:34:53;100935.19;;;22.47;54.30
4449;BME280;2237;51.870;6.160;2022-08-14T04:37:22;100934.69;;;22.55;54.21
4449;BME280;2237;51.870;6.160;2022-08-14T04:40:08;100925.94;;;22.52;54.63
4449;BME280;2237;51.870;6.160;2022-08-14T04:42:54;100921.72;;;22.50;54.77
4449;BME280;2237;51.870;6.160;2022-08-14T04:45:42;100919.06;;;22.50;54.79
4449;BME280;2237;51.870;6.160;2022-08-14T04:48:13;100914.72;;;22.49;54.59
4449;BME280;2237;51.870;6.160;2022-08-14T04:51:02;100910.44;;;22.46;54.80
4449;BME280;2237;51.870;6.160;2022-08-14T04:53:30;100924.38;;;22.50;55.21
4449;BME280;2237;51.870;6.160;2022-08-14T04:56:06;100917.38;;;22.49;54.94
4449;BME280;2237;51.870;6.160;2022-08-14T04:58:59;100920.13;;;22.60;54.66
4449;BME280;2237;51.870;6.160;2022-08-14T05:01:29;100923.63;;;22.61;54.89
4449;BME280;2237;51.870;6.160;2022-08-14T05:04:05;100920.84;;;22.62;54.96
4449;BME280;2237;51.870;6.160;2022-08-14T05:06:32;100911.75;;;22.66;54.24
4449;BME280;2237;51.870;6.160;2022-08-14T05:09:05;100908.34;;;22.64;54.69
4449;BME280;2237;51.870;6.160;2022-08-14T05:11:35;100907.28;;;22.67;54.86
4449;BME280;2237;51.870;6.160;2022-08-14T05:14:03;100907.69;;;22.73;54.68
4449;BME280;2237;51.870;6.160;2022-08-14T05:16:50;100901.75;;;22.70;54.84
4449;BME280;2237;51.870;6.160;2022-08-14T05:19:18;100902.38;;;22.73;54.51
4449;BME280;2237;51.870;6.160;2022-08-14T05:21:52;100908.75;;;22.83;53.98
4449;BME280;2237;51.870;6.160;2022-08-14T05:24:47;100900.78;;;22.83;54.29
4449;BME280;2237;51.870;6.160;2022-08-14T05:27:18;100906.72;;;22.87;54.51
4449;BME280;2237;51.870;6.160;2022-08-14T05:29:52;100911.47;;;22.94;54.10
4449;BME280;2237;51.870;6.160;2022-08-14T05:32:23;100908.25;;;23.02;53.55
4449;BME280;2237;51.870;6.160;2022-08-14T05:34:55;100899.84;;;23.08;53.81
4449;BME280;2237;51.870;6.160;2022-08-14T05:37:23;100897.94;;;23.10;53.84
4449;BME280;2237;51.870;6.160;2022-08-14T05:39:51;100894.41;;;23.10;53.62
4449;BME280;2237;51.870;6.160;2022-08-14T05:42:18;100890.47;;;23.15;53.71
4449;BME280;2237;51.870;6.160;2022-08-14T05:44:47;100891.09;;;23.19;53.46
4449;BME280;2237;51.870;6.160;2022-08-14T05:47:14;100894.34;;;23.22;53.68
4449;BME280;2237;51.870;6.160;2022-08-14T05:49:44;100891.59;;;23.24;53.63
4449;BME280;2237;51.870;6.160;2022-08-14T05:52:11;100886.28;;;23.24;53.86
4449;BME280;2237;51.870;6.160;2022-08-14T05:54:43;100886.78;;;23.29;53.22
4449;BME280;2237;51.870;6.160;2022-08-14T05:57:09;100879.75;;;23.28;53.90
4449;BME280;2237;51.870;6.160;2022-08-14T05:59:36;100884.75;;;23.32;53.64
4449;BME280;2237;51.870;6.160;2022-08-14T06:02:08;100881.25;;;23.32;54.04
4449;BME280;2237;51.870;6.160;2022-08-14T06:04:37;100883.50;;;23.25;54.12
4449;BME280;2237;51.870;6.160;2022-08-14T06:07:04;100884.97;;;23.29;54.26
4449;BME280;2237;51.870;6.160;2022-08-14T06:09:31;100881.66;;;23.38;53.71
4449;BME280;2237;51.870;6.160;2022-08-14T06:12:09;100882.56;;;23.50;53.47
4449;BME280;2237;51.870;6.160;2022-08-14T06:14:37;100885.50;;;23.58;53.39
4449;BME280;2237;51.870;6.160;2022-08-14T06:17:04;100882.84;;;23.69;52.99
4449;BME280;2237;51.870;6.160;2022-08-14T06:19:30;100887.47;;;23.78;52.66
4449;BME280;2237;51.870;6.160;2022-08-14T06:21:57;100881.66;;;23.73;52.60
4449;BME280;2237;51.870;6.160;2022-08-14T06:24:25;100880.81;;;23.73;52.86
4449;BME280;2237;51.870;6.160;2022-08-14T06:26:51;100880.00;;;23.83;53.08
4449;BME280;2237;51.870;6.160;2022-08-14T06:29:29;100885.53;;;23.80;53.12
4449;BME280;2237;51.870;6.160;2022-08-14T06:32:00;100889.31;;;23.89;53.12
4449;BME280;2237;51.870;6.160;2022-08-14T06:34:46;100886.16;;;23.84;53.05
4449;BME280;2237;51.870;6.160;2022-08-14T06:37:47;100878.09;;;23.85;53.31
4449;BME280;2237;51.870;6.160;2022-08-14T06:40:20;100886.31;;;23.93;52.97
4449;BME280;2237;51.870;6.160;2022-08-14T06:42:58;100880.75;;;23.96;53.14
4449;BME280;2237;51.870;6.160;2022-08-14T06:45:30;100885.84;;;23.99;53.43
4449;BME280;2237;51.870;6.160;2022-08-14T06:47:57;100883.00;;;24.13;52.87
4449;BME280;2237;51.870;6.160;2022-08-14T06:50:24;100882.16;;;24.24;52.97
4449;BME280;2237;51.870;6.160;2022-08-14T06:52:56;100884.22;;;24.43;52.61
4449;BME280;2237;51.870;6.160;2022-08-14T06:55:22;100890.88;;;24.37;52.75
4449;BME280;2237;51.870;6.160;2022-08-14T06:57:54;100894.63;;;24.46;52.24
4449;BME280;2237;51.870;6.160;2022-08-14T07:00:25;100893.41;;;24.50;52.35
4449;BME280;2237;51.870;6.160;2022-08-14T07:02:57;100853.59;;;24.37;52.07
4449;BME280;2237;51.870;6.160;2022-08-14T07:05:45;100873.56;;;24.54;52.13
4449;BME280;2237;51.870;6.160;2022-08-14T07:08:29;100865.81;;;24.62;51.40
4449;BME280;2237;51.870;6.160;2022-08-14T07:11:00;100863.00;;;24.74;51.71
4449;BME280;2237;51.870;6.160;2022-08-14T07:13:30;100853.47;;;24.72;51.65
4449;BME280;2237;51.870;6.160;2022-08-14T07:15:58;100861.19;;;24.86;51.40
4449;BME280;2237;51.870;6.160;2022-08-14T07:18:29;100862.63;;;24.90;51.69
4449;BME280;2237;51.870;6.160;2022-08-14T07:20:58;100853.19;;;24.97;51.17
4449;BME280;2237;51.870;6.160;2022-08-14T07:23:25;100854.63;;;25.01;50.76
4449;BME280;2237;51.870;6.160;2022-08-14T07:25:55;100848.56;;;24.99;51.15
4449;BME280;2237;51.870;6.160;2022-08-14T07:28:30;100860.13;;;25.20;51.02
4449;BME280;2237;51.870;6.160;2022-08-14T07:31:00;100850.41;;;25.31;50.77
4449;BME280;2237;51.870;6.160;2022-08-14T07:36:03;100865.47;;;25.52;50.46
4449;BME280;2237;51.870;6.160;2022-08-14T07:38:34;100867.06;;;25.44;50.70
4449;BME280;2237;51.870;6.160;2022-08-14T07:41:04;100865.88;;;25.48;50.18
4449;BME280;2237;51.870;6.160;2022-08-14T07:46:18;100846.69;;;25.54;49.51
4449;BME280;2237;51.870;6.160;2022-08-14T07:48:54;100852.16;;;25.73;49.31
4449;BME280;2237;51.870;6.160;2022-08-14T07:51:22;100857.34;;;25.74;49.20
4449;BME280;2237;51.870;6.160;2022-08-14T07:53:49;100851.63;;;25.79;48.76
4449;BME280;2237;51.870;6.160;2022-08-14T07:56:22;100847.66;;;25.94;48.35
4449;BME280;2237;51.870;6.160;2022-08-14T07:59:09;100858.00;;;26.08;48.27
4449;BME280;2237;51.870;6.160;2022-08-14T08:01:38;100849.56;;;26.13;47.39
4449;BME280;2237;51.870;6.160;2022-08-14T08:04:21;100856.38;;;26.17;48.02
4449;BME280;2237;51.870;6.160;2022-08-14T08:06:51;100859.16;;;26.15;47.60
4449;BME280;2237;51.870;6.160;2022-08-14T08:09:23;100848.69;;;26.23;47.73
4449;BME280;2237;51.870;6.160;2022-08-14T08:11:59;100841.88;;;26.40;46.93
4449;BME280;2237;51.870;6.160;2022-08-14T08:14:33;100842.88;;;26.49;47.20
4449;BME280;2237;51.870;6.160;2022-08-14T08:17:22;100851.19;;;26.55;46.36
4449;BME280;2237;51.870;6.160;2022-08-14T08:19:49;100840.25;;;26.58;46.43
4449;BME280;2237;51.870;6.160;2022-08-14T08:22:17;100842.66;;;26.61;46.22
4449;BME280;2237;51.870;6.160;2022-08-14T08:24:44;100841.25;;;26.67;46.03
4449;BME280;2237;51.870;6.160;2022-08-14T08:27:16;100852.38;;;26.72;46.01
4449;BME280;2237;51.870;6.160;2022-08-14T08:29:43;100850.00;;;26.78;46.10
4449;BME280;2237;51.870;6.160;2022-08-14T08:32:17;100846.38;;;26.89;45.71
4449;BME280;2237;51.870;6.160;2022-08-14T08:34:45;100841.75;;;26.91;45.65
4449;BME280;2237;51.870;6.160;2022-08-14T08:37:13;100842.03;;;26.98;45.98
4449;BME280;2237;51.870;6.160;2022-08-14T08:39:47;100831.34;;;26.98;45.40
4449;BME280;2237;51.870;6.160;2022-08-14T08:42:29;100837.84;;;27.05;45.19
4449;BME280;2237;51.870;6.160;2022-08-14T08:45:05;100831.09;;;27.10;45.15
4449;BME280;2237;51.870;6.160;2022-08-14T08:47:40;100830.25;;;27.19;45.05
4449;BME280;2237;51.870;6.160;2022-08-14T08:50:22;100827.72;;;27.27;44.55
4449;BME280;2237;51.870;6.160;2022-08-14T08:53:07;100838.09;;;27.40;44.72
4449;BME280;2237;51.870;6.160;2022-08-14T08:55:40;100839.78;;;27.41;44.60
4449;BME280;2237;51.870;6.160;2022-08-14T08:58:16;100835.03;;;27.44;44.57
4449;BME280;2237;51.870;6.160;2022-08-14T09:00:56;100837.84;;;27.62;44.44
4449;BME280;2237;51.870;6.160;2022-08-14T09:03:28;100837.97;;;27.61;44.52
4449;BME280;2237;51.870;6.160;2022-08-14T09:06:01;100836.13;;;27.71;43.99
4449;BME280;2237;51.870;6.160;2022-08-14T09:08:48;100839.38;;;27.74;44.03
4449;BME280;2237;51.870;6.160;2022-08-14T09:11:16;100830.22;;;27.77;43.89
4449;BME280;2237;51.870;6.160;2022-08-14T09:13:50;100833.13;;;27.83;43.91
4449;BME280;2237;51.870;6.160;2022-08-14T09:16:23;100819.44;;;27.96;43.91
4449;BME280;2237;51.870;6.160;2022-08-14T09:18:52;100821.28;;;28.05;43.22
4449;BME280;2237;51.870;6.160;2022-08-14T09:21:20;100810.28;;;28.08;43.08
4449;BME280;2237;51.870;6.160;2022-08-14T09:23:52;100796.13;;;28.16;42.82
4449;BME280;2237;51.870;6.160;2022-08-14T09:26:39;100806.69;;;28.27;42.57
4449;BME280;2237;51.870;6.160;2022-08-14T09:29:08;100811.59;;;28.31;42.59
4449;BME280;2237;51.870;6.160;2022-08-14T09:31:37;100821.84;;;28.36;42.35
4449;BME280;2237;51.870;6.160;2022-08-14T09:43:06;100806.53;;;28.55;41.38
4449;BME280;2237;51.870;6.160;2022-08-14T09:45:47;100790.56;;;28.64;41.29
4449;BME280;2237;51.870;6.160;2022-08-14T09:48:21;100789.25;;;28.68;40.77
4449;BME280;2237;51.870;6.160;2022-08-14T09:50:57;100784.69;;;28.78;40.98
4449;BME280;2237;51.870;6.160;2022-08-14T09:53:47;100775.13;;;28.93;40.26
4449;BME280;2237;51.870;6.160;2022-08-14T09:56:48;100785.75;;;29.02;39.27
4449;BME280;2237;51.870;6.160;2022-08-14T09:59:22;100772.88;;;29.06;38.83
4449;BME280;2237;51.870;6.160;2022-08-14T10:01:57;100763.22;;;29.13;39.19
4449;BME280;2237;51.870;6.160;2022-08-14T10:04:25;100762.16;;;29.24;38.87
4449;BME280;2237;51.870;6.160;2022-08-14T10:07:03;100763.78;;;29.34;38.41
4449;BME280;2237;51.870;6.160;2022-08-14T10:09:30;100759.16;;;29.44;38.20
4449;BME280;2237;51.870;6.160;2022-08-14T10:12:01;100753.47;;;29.47;37.56
4449;BME280;2237;51.870;6.160;2022-08-14T10:14:33;100753.78;;;29.44;37.51
4449;BME280;2237;51.870;6.160;2022-08-14T10:17:03;100752.84;;;29.53;37.55
4449;BME280;2237;51.870;6.160;2022-08-14T10:19:33;100744.84;;;29.61;36.84
4449;BME280;2237;51.870;6.160;2022-08-14T10:22:07;100743.34;;;29.67;36.75
4449;BME280;2237;51.870;6.160;2022-08-14T10:24:55;100725.94;;;29.71;37.23
4449;BME280;2237;51.870;6.160;2022-08-14T10:27:25;100725.97;;;29.79;37.23
4449;BME280;2237;51.870;6.160;2022-08-14T10:29:54;100730.22;;;29.82;37.22
4449;BME280;2237;51.870;6.160;2022-08-14T10:32:24;100715.28;;;29.87;36.11
4449;BME280;2237;51.870;6.160;2022-08-14T10:35:06;100721.94;;;30.01;36.81
4449;BME280;2237;51.870;6.160;2022-08-14T10:37:50;100720.44;;;30.06;36.15
4449;BME280;2237;51.870;6.160;2022-08-14T10:40:43;100717.25;;;30.11;35.67
4449;BME280;2237;51.870;6.160;2022-08-14T10:43:24;100722.63;;;30.11;35.02
4449;BME280;2237;51.870;6.160;2022-08-14T10:45:56;100722.16;;;30.23;34.33
4449;BME280;2237;51.870;6.160;2022-08-14T10:49:04;100713.94;;;30.33;34.41
4449;BME280;2237;51.870;6.160;2022-08-14T10:51:32;100717.34;;;30.35;34.27
4449;BME280;2237;51.870;6.160;2022-08-14T10:54:08;100717.72;;;30.40;34.01
4449;BME280;2237;51.870;6.160;2022-08-14T10:57:17;100713.03;;;30.50;33.55
4449;BME280;2237;51.870;6.160;2022-08-14T11:02:28;100718.25;;;30.60;34.16
4449;BME280;2237;51.870;6.160;2022-08-14T11:05:16;100712.38;;;30.72;34.02
4449;BME280;2237;51.870;6.160;2022-08-14T11:13:03;100697.09;;;30.89;33.17
4449;BME280;2237;51.870;6.160;2022-08-14T11:15:31;100685.03;;;31.01;32.96
4449;BME280;2237;51.870;6.160;2022-08-14T11:17:58;100681.47;;;31.09;32.89
4449;BME280;2237;51.870;6.160;2022-08-14T11:20:28;100682.16;;;31.19;32.89
4449;BME280;2237;51.870;6.160;2022-08-14T11:22:59;100679.44;;;31.27;32.47
4449;BME280;2237;51.870;6.160;2022-08-14T11:25:28;100682.50;;;31.16;32.49
4449;BME280;2237;51.870;6.160;2022-08-14T11:28:11;100680.63;;;31.24;31.85
4449;BME280;2237;51.870;6.160;2022-08-14T11:30:47;100682.97;;;31.27;31.66
4449;BME280;2237;51.870;6.160;2022-08-14T11:33:24;100673.34;;;31.41;31.49
4449;BME280;2237;51.870;6.160;2022-08-14T11:35:58;100676.72;;;31.51;32.42
4449;BME280;2237;51.870;6.160;2022-08-14T11:38:34;100687.16;;;31.54;31.54
4449;BME280;2237;51.870;6.160;2022-08-14T11:41:03;100673.81;;;31.61;30.61
4449;BME280;2237;51.870;6.160;2022-08-14T11:43:39;100672.94;;;31.76;31.80
4449;BME280;2237;51.870;6.160;2022-08-14T11:46:08;100673.09;;;31.83;31.13
4449;BME280;2237;51.870;6.160;2022-08-14T11:48:55;100669.53;;;31.82;30.89
4449;BME280;2237;51.870;6.160;2022-08-14T11:51:31;100660.38;;;32.00;31.36
4449;BME280;2237;51.870;6.160;2022-08-14T11:54:03;100654.56;;;32.19;30.58
4449;BME280;2237;51.870;6.160;2022-08-14T11:56:35;100658.72;;;32.29;30.45
4449;BME280;2237;51.870;6.160;2022-08-14T11:59:02;100654.88;;;32.47;30.86
4449;BME280;2237;51.870;6.160;2022-08-14T12:01:35;100664.84;;;32.69;29.63
4449;BME280;2237;51.870;6.160;2022-08-14T12:04:15;100658.91;;;32.96;29.71
4449;BME280;2237;51.870;6.160;2022-08-14T12:06:58;100659.25;;;33.16;29.32
4449;BME280;2237;51.870;6.160;2022-08-14T12:09:46;100654.59;;;33.24;28.13
4449;BME280;2237;51.870;6.160;2022-08-14T12:12:23;100650.97;;;33.17;27.81
4449;BME280;2237;51.870;6.160;2022-08-14T12:15:02;100649.19;;;33.24;29.22
4449;BME280;2237;51.870;6.160;2022-08-14T12:17:30;100647.22;;;33.18;28.47
4449;BME280;2237;51.870;6.160;2022-08-14T12:20:13;100652.81;;;33.17;28.02
4449;BME280;2237;51.870;6.160;2022-08-14T12:22:42;100654.50;;;33.32;28.43
4449;BME280;2237;51.870;6.160;2022-08-14T12:25:14;100654.97;;;33.36;28.11
4449;BME280;2237;51.870;6.160;2022-08-14T12:27:44;100645.13;;;33.43;27.76
4449;BME280;2237;51.870;6.160;2022-08-14T12:30:37;100636.34;;;33.55;27.87
4449;BME280;2237;51.870;6.160;2022-08-14T12:35:53;100626.34;;;34.00;27.49
4449;BME280;2237;51.870;6.160;2022-08-14T12:38:38;100621.63;;;34.23;27.22
4449;BME280;2237;51.870;6.160;2022-08-14T12:41:15;100618.88;;;34.38;26.59
4449;BME280;2237;51.870;6.160;2022-08-14T12:43:57;100617.13;;;34.51;25.91
4449;BME280;2237;51.870;6.160;2022-08-14T12:48:55;100601.69;;;34.24;26.20
4449;BME280;2237;51.870;6.160;2022-08-14T12:51:23;100597.34;;;34.08;25.66
4449;BME280;2237;51.870;6.160;2022-08-14T12:53:54;100590.22;;;34.07;25.93
4449;BME280;2237;51.870;6.160;2022-08-14T12:56:25;100589.88;;;34.11;25.95
4449;BME280;2237;51.870;6.160;2022-08-14T12:58:59;100581.66;;;34.19;26.04
4449;BME280;2237;51.870;6.160;2022-08-14T13:01:28;100582.03;;;34.37;26.34
4449;BME280;2237;51.870;6.160;2022-08-14T13:04:14;100572.50;;;34.41;25.52
4449;BME280;2237;51.870;6.160;2022-08-14T13:06:44;100565.16;;;34.35;25.48
4449;BME280;2237;51.870;6.160;2022-08-14T13:09:18;100567.50;;;34.38;25.31
4449;BME280;2237;51.870;6.160;2022-08-14T13:11:50;100561.41;;;34.57;25.21
4449;BME280;2237;51.870;6.160;2022-08-14T13:14:24;100560.53;;;34.71;24.23
4449;BME280;2237;51.870;6.160;2022-08-14T13:16:56;100553.97;;;34.87;25.15
4449;BME280;2237;51.870;6.160;2022-08-14T13:19:24;100542.75;;;34.90;24.49
4449;BME280;2237;51.870;6.160;2022-08-14T13:21:53;100540.31;;;35.01;23.99
4449;BME280;2237;51.870;6.160;2022-08-14T13:24:32;100526.19;;;35.06;24.12
4449;BME280;2237;51.870;6.160;2022-08-14T13:27:00;100533.13;;;35.15;23.55
4449;BME280;2237;51.870;6.160;2022-08-14T13:29:34;100531.66;;;35.12;23.55
4449;BME280;2237;51.870;6.160;2022-08-14T13:32:05;100522.38;;;35.28;23.45
4449;BME280;2237;51.870;6.160;2022-08-14T13:34:34;100520.78;;;35.53;22.92
4449;BME280;2237;51.870;6.160;2022-08-14T13:37:02;100514.03;;;35.77;22.97
4449;BME280;2237;51.870;6.160;2022-08-14T13:39:32;100508.00;;;35.88;22.75
4449;BME280;2237;51.870;6.160;2022-08-14T13:42:03;100518.69;;;36.09;22.91
4449;BME280;2237;51.870;6.160;2022-08-14T13:44:33;100505.34;;;36.41;22.17
4449;BME280;2237;51.870;6.160;2022-08-14T13:47:00;100515.38;;;36.73;22.05
4449;BME280;2237;51.870;6.160;2022-08-14T13:49:29;100509.06;;;37.94;20.72
4449;BME280;2237;51.870;6.160;2022-08-14T13:51:58;100506.53;;;41.05;17.49
4449;BME280;2237;51.870;6.160;2022-08-14T13:54:30;100506.38;;;45.45;14.12
4449;BME280;2237;51.870;6.160;2022-08-14T13:57:00;100502.13;;;49.60;10.73
4449;BME280;2237;51.870;6.160;2022-08-14T13:59:28;100493.84;;;52.89;8.16
4449;BME280;2237;51.870;6.160;2022-08-14T14:02:06;100500.38;;;55.23;7.12
4449;BME280;2237;51.870;6.160;2022-08-14T14:04:38;100496.78;;;57.26;6.05
4449;BME280;2237;51.870;6.160;2022-08-14T14:07:08;100489.97;;;58.85;4.83
4449;BME280;2237;51.870;6.160;2022-08-14T14:09:44;100490.66;;;59.90;3.95
4449;BME280;2237;51.870;6.160;2022-08-14T14:12:18;100482.25;;;62.18;3.46
4449;BME280;2237;51.870;6.160;2022-08-14T14:15:07;100485.72;;;64.18;2.38
4449;BME280;2237;51.870;6.160;2022-08-14T14:17:36;100472.53;;;65.37;2.12